sensor_id;sensor_type;location;lat;lon;timestamp;P1;durP1;ratioP1;P2;durP2;ratioP2
29954;SDS011;68448;51.188;6.868;2023-04-03T00:00:57;17.20;;;7.17;;
29954;SDS011;68448;51.188;6.868;2023-04-03T00:03:24;9.07;;;7.30;;
29954;SDS011;68448;51.188;6.868;2023-04-03T00:05:53;11.00;;;6.30;;
29954;SDS011;68448;51.188;6.868;2023-04-03T00:08:20;9.43;;;6.70;;
29954;SDS011;68448;51.188;6.868;2023-04-03T00:10:47;13.47;;;7.20;;
29954;SDS011;68448;51.188;6.868;2023-04-03T00:13:16;11.03;;;6.97;;
29954;SDS011;68448;51.188;6.868;2023-04-03T00:15:43;14.70;;;7.90;;
29954;SDS011;68448;51.188;6.868;2023-04-03T00:18:10;10.17;;;7.43;;
29954;SDS011;68448;51.188;6.868;2023-04-03T00:20:37;11.60;;;8.33;;
29954;SDS011;68448;51.188;6.868;2023-04-03T00:23:06;11.80;;;8.20;;
29954;SDS011;68448;51.188;6.868;2023-04-03T00:25:33;14.30;;;7.70;;
29954;SDS011;68448;51.188;6.868;2023-04-03T00:28:01;9.80;;;7.90;;
29954;SDS011;68448;51.188;6.868;2023-04-03T00:30:28;11.00;;;7.90;;
29954;SDS011;68448;51.188;6.868;2023-04-03T00:32:55;12.90;;;7.93;;
29954;SDS011;68448;51.188;6.868;2023-04-03T00:35:23;12.20;;;9.03;;
29954;SDS011;68448;51.188;6.868;2023-04-03T00:37:51;10.50;;;8.53;;
29954;SDS011;68448;51.188;6.868;2023-04-03T00:40:20;10.97;;;8.23;;
29954;SDS011;68448;51.188;6.868;2023-04-03T00:42:47;13.07;;;8.87;;
29954;SDS011;68448;51.188;6.868;2023-04-03T00:48:04;13.90;;;9.97;;
29954;SDS011;68448;51.188;6.868;2023-04-03T00:50:31;16.73;;;8.30;;
29954;SDS011;68448;51.188;6.868;2023-04-03T00:53:00;17.50;;;9.80;;
29954;SDS011;68448;51.188;6.868;2023-04-03T00:55:28;12.30;;;8.67;;
29954;SDS011;68448;51.188;6.868;2023-04-03T00:57:56;12.47;;;9.53;;
29954;SDS011;68448;51.188;6.868;2023-04-03T01:00:23;11.67;;;9.00;;
29954;SDS011;68448;51.188;6.868;2023-04-03T01:02:51;14.10;;;8.90;;
29954;SDS011;68448;51.188;6.868;2023-04-03T01:05:19;13.30;;;8.73;;
29954;SDS011;68448;51.188;6.868;2023-04-03T01:07:47;12.73;;;8.80;;
29954;SDS011;68448;51.188;6.868;2023-04-03T01:10:15;14.80;;;9.10;;
29954;SDS011;68448;51.188;6.868;2023-04-03T01:12:45;11.97;;;8.83;;
29954;SDS011;68448;51.188;6.868;2023-04-03T01:15:14;14.80;;;10.27;;
29954;SDS011;68448;51.188;6.868;2023-04-03T01:17:42;12.50;;;8.83;;
29954;SDS011;68448;51.188;6.868;2023-04-03T01:20:16;11.80;;;8.50;;
29954;SDS011;68448;51.188;6.868;2023-04-03T01:22:47;16.60;;;9.30;;
29954;SDS011;68448;51.188;6.868;2023-04-03T01:25:21;13.67;;;9.33;;
29954;SDS011;68448;51.188;6.868;2023-04-03T01:27:50;18.03;;;11.50;;
29954;SDS011;68448;51.188;6.868;2023-04-03T01:30:18;19.33;;;10.70;;
29954;SDS011;68448;51.188;6.868;2023-04-03T01:32:47;20.30;;;10.23;;
29954;SDS011;68448;51.188;6.868;2023-04-03T01:35:16;18.30;;;10.63;;
29954;SDS011;68448;51.188;6.868;2023-04-03T01:37:43;14.73;;;10.03;;
29954;SDS011;68448;51.188;6.868;2023-04-03T01:40:10;14.30;;;10.63;;
29954;SDS011;68448;51.188;6.868;2023-04-03T01:42:37;20.93;;;10.53;;
29954;SDS011;68448;51.188;6.868;2023-04-03T01:45:05;18.20;;;10.97;;
29954;SDS011;68448;51.188;6.868;2023-04-03T01:47:32;21.57;;;11.00;;
29954;SDS011;68448;51.188;6.868;2023-04-03T01:50:01;15.23;;;10.13;;
29954;SDS011;68448;51.188;6.868;2023-04-03T01:52:31;17.37;;;11.43;;
29954;SDS011;68448;51.188;6.868;2023-04-03T01:54:58;13.57;;;10.63;;
29954;SDS011;68448;51.188;6.868;2023-04-03T01:57:25;13.60;;;10.70;;
29954;SDS011;68448;51.188;6.868;2023-04-03T01:59:52;14.20;;;10.20;;
29954;SDS011;68448;51.188;6.868;2023-04-03T02:02:20;23.37;;;12.60;;
29954;SDS011;68448;51.188;6.868;2023-04-03T02:04:47;15.67;;;11.57;;
29954;SDS011;68448;51.188;6.868;2023-04-03T02:07:15;21.47;;;12.70;;
29954;SDS011;68448;51.188;6.868;2023-04-03T02:09:42;14.50;;;11.00;;
29954;SDS011;68448;51.188;6.868;2023-04-03T02:12:09;18.63;;;10.83;;
29954;SDS011;68448;51.188;6.868;2023-04-03T02:14:37;13.90;;;10.00;;
29954;SDS011;68448;51.188;6.868;2023-04-03T02:17:04;14.67;;;9.93;;
29954;SDS011;68448;51.188;6.868;2023-04-03T02:19:31;17.80;;;9.97;;
29954;SDS011;68448;51.188;6.868;2023-04-03T02:21:58;14.00;;;9.10;;
29954;SDS011;68448;51.188;6.868;2023-04-03T02:24:26;16.13;;;10.13;;
29954;SDS011;68448;51.188;6.868;2023-04-03T02:26:54;12.43;;;8.30;;
29954;SDS011;68448;51.188;6.868;2023-04-03T02:29:21;14.67;;;9.07;;
29954;SDS011;68448;51.188;6.868;2023-04-03T02:31:48;17.63;;;8.63;;
29954;SDS011;68448;51.188;6.868;2023-04-03T02:34:16;11.50;;;8.40;;
29954;SDS011;68448;51.188;6.868;2023-04-03T02:36:44;10.27;;;6.87;;
29954;SDS011;68448;51.188;6.868;2023-04-03T02:39:12;11.60;;;6.77;;
29954;SDS011;68448;51.188;6.868;2023-04-03T02:41:41;10.50;;;7.73;;
29954;SDS011;68448;51.188;6.868;2023-04-03T02:44:14;11.40;;;6.90;;
29954;SDS011;68448;51.188;6.868;2023-04-03T02:46:41;11.07;;;6.33;;
29954;SDS011;68448;51.188;6.868;2023-04-03T02:49:08;9.77;;;6.70;;
29954;SDS011;68448;51.188;6.868;2023-04-03T02:51:36;10.33;;;7.30;;
29954;SDS011;68448;51.188;6.868;2023-04-03T02:54:03;9.30;;;7.20;;
29954;SDS011;68448;51.188;6.868;2023-04-03T02:56:33;10.80;;;6.80;;
29954;SDS011;68448;51.188;6.868;2023-04-03T02:59:01;10.70;;;7.03;;
29954;SDS011;68448;51.188;6.868;2023-04-03T03:01:29;11.30;;;7.27;;
29954;SDS011;68448;51.188;6.868;2023-04-03T03:03:57;8.33;;;5.97;;
29954;SDS011;68448;51.188;6.868;2023-04-03T03:06:24;10.43;;;7.10;;
29954;SDS011;68448;51.188;6.868;2023-04-03T03:08:51;8.37;;;6.40;;
29954;SDS011;68448;51.188;6.868;2023-04-03T03:11:18;13.80;;;6.60;;
29954;SDS011;68448;51.188;6.868;2023-04-03T03:13:46;12.40;;;7.73;;
29954;SDS011;68448;51.188;6.868;2023-04-03T03:16:14;14.13;;;6.47;;
29954;SDS011;68448;51.188;6.868;2023-04-03T03:18:41;10.73;;;6.20;;
29954;SDS011;68448;51.188;6.868;2023-04-03T03:21:09;11.20;;;6.77;;
29954;SDS011;68448;51.188;6.868;2023-04-03T03:23:36;11.10;;;6.20;;
29954;SDS011;68448;51.188;6.868;2023-04-03T03:26:05;10.00;;;7.00;;
29954;SDS011;68448;51.188;6.868;2023-04-03T03:28:33;10.90;;;6.37;;
29954;SDS011;68448;51.188;6.868;2023-04-03T03:31:00;10.83;;;5.43;;
29954;SDS011;68448;51.188;6.868;2023-04-03T03:33:30;15.40;;;6.13;;
29954;SDS011;68448;51.188;6.868;2023-04-03T03:35:58;12.97;;;6.67;;
29954;SDS011;68448;51.188;6.868;2023-04-03T03:38:25;8.73;;;6.00;;
29954;SDS011;68448;51.188;6.868;2023-04-03T03:40:53;11.83;;;6.80;;
29954;SDS011;68448;51.188;6.868;2023-04-03T03:43:21;13.30;;;5.63;;
29954;SDS011;68448;51.188;6.868;2023-04-03T03:45:51;15.03;;;6.60;;
29954;SDS011;68448;51.188;6.868;2023-04-03T03:48:19;10.53;;;5.83;;
29954;SDS011;68448;51.188;6.868;2023-04-03T03:50:47;10.43;;;6.50;;
29954;SDS011;68448;51.188;6.868;2023-04-03T03:53:16;15.50;;;6.20;;
29954;SDS011;68448;51.188;6.868;2023-04-03T03:55:43;8.93;;;6.37;;
29954;SDS011;68448;51.188;6.868;2023-04-03T03:58:10;9.80;;;5.60;;
29954;SDS011;68448;51.188;6.868;2023-04-03T04:00:38;16.40;;;6.37;;
29954;SDS011;68448;51.188;6.868;2023-04-03T04:03:05;8.30;;;5.00;;
29954;SDS011;68448;51.188;6.868;2023-04-03T04:05:32;8.00;;;6.30;;
29954;SDS011;68448;51.188;6.868;2023-04-03T04:08:01;5.93;;;5.00;;
29954;SDS011;68448;51.188;6.868;2023-04-03T04:10:28;12.67;;;5.63;;
29954;SDS011;68448;51.188;6.868;2023-04-03T04:12:57;7.90;;;5.53;;
29954;SDS011;68448;51.188;6.868;2023-04-03T04:15:26;8.07;;;5.00;;
29954;SDS011;68448;51.188;6.868;2023-04-03T04:17:55;8.20;;;5.63;;
29954;SDS011;68448;51.188;6.868;2023-04-03T04:20:22;14.27;;;5.63;;
29954;SDS011;68448;51.188;6.868;2023-04-03T04:22:49;7.13;;;5.37;;
29954;SDS011;68448;51.188;6.868;2023-04-03T04:25:19;18.60;;;5.93;;
29954;SDS011;68448;51.188;6.868;2023-04-03T04:27:47;10.13;;;5.20;;
29954;SDS011;68448;51.188;6.868;2023-04-03T04:30:14;9.07;;;5.20;;
29954;SDS011;68448;51.188;6.868;2023-04-03T04:32:44;10.67;;;5.33;;
29954;SDS011;68448;51.188;6.868;2023-04-03T04:35:11;8.33;;;5.63;;
29954;SDS011;68448;51.188;6.868;2023-04-03T04:37:44;10.07;;;5.00;;
29954;SDS011;68448;51.188;6.868;2023-04-03T04:40:11;11.13;;;5.20;;
29954;SDS011;68448;51.188;6.868;2023-04-03T04:42:40;12.67;;;5.87;;
29954;SDS011;68448;51.188;6.868;2023-04-03T04:45:07;9.13;;;5.50;;
29954;SDS011;68448;51.188;6.868;2023-04-03T04:47:36;8.63;;;5.47;;
29954;SDS011;68448;51.188;6.868;2023-04-03T04:50:04;7.07;;;4.47;;
29954;SDS011;68448;51.188;6.868;2023-04-03T04:52:31;9.30;;;5.20;;
29954;SDS011;68448;51.188;6.868;2023-04-03T04:54:59;7.67;;;4.77;;
29954;SDS011;68448;51.188;6.868;2023-04-03T04:57:26;6.37;;;4.50;;
29954;SDS011;68448;51.188;6.868;2023-04-03T04:59:57;5.00;;;4.50;;
29954;SDS011;68448;51.188;6.868;2023-04-03T05:02:25;12.03;;;5.20;;
29954;SDS011;68448;51.188;6.868;2023-04-03T05:04:53;12.73;;;6.40;;
29954;SDS011;68448;51.188;6.868;2023-04-03T05:07:25;7.40;;;4.43;;
29954;SDS011;68448;51.188;6.868;2023-04-03T05:09:53;7.87;;;4.73;;
29954;SDS011;68448;51.188;6.868;2023-04-03T05:12:20;8.63;;;5.40;;
29954;SDS011;68448;51.188;6.868;2023-04-03T05:14:53;10.00;;;4.30;;
29954;SDS011;68448;51.188;6.868;2023-04-03T05:17:22;8.50;;;5.43;;
29954;SDS011;68448;51.188;6.868;2023-04-03T05:19:52;9.83;;;4.30;;
29954;SDS011;68448;51.188;6.868;2023-04-03T05:22:21;9.07;;;4.50;;
29954;SDS011;68448;51.188;6.868;2023-04-03T05:24:51;12.23;;;4.67;;
29954;SDS011;68448;51.188;6.868;2023-04-03T05:27:19;7.83;;;4.37;;
29954;SDS011;68448;51.188;6.868;2023-04-03T05:29:52;4.77;;;3.73;;
29954;SDS011;68448;51.188;6.868;2023-04-03T05:32:22;7.07;;;4.50;;
29954;SDS011;68448;51.188;6.868;2023-04-03T05:34:57;12.07;;;4.90;;
29954;SDS011;68448;51.188;6.868;2023-04-03T05:37:26;8.40;;;4.30;;
29954;SDS011;68448;51.188;6.868;2023-04-03T05:39:54;9.60;;;4.97;;
29954;SDS011;68448;51.188;6.868;2023-04-03T05:42:22;9.20;;;4.03;;
29954;SDS011;68448;51.188;6.868;2023-04-03T05:44:49;6.80;;;4.47;;
29954;SDS011;68448;51.188;6.868;2023-04-03T05:47:16;6.47;;;3.73;;
29954;SDS011;68448;51.188;6.868;2023-04-03T05:49:45;6.67;;;3.63;;
29954;SDS011;68448;51.188;6.868;2023-04-03T05:52:18;7.30;;;3.90;;
29954;SDS011;68448;51.188;6.868;2023-04-03T05:54:47;3.90;;;3.23;;
29954;SDS011;68448;51.188;6.868;2023-04-03T05:57:20;6.10;;;4.37;;
29954;SDS011;68448;51.188;6.868;2023-04-03T05:59:47;7.00;;;4.10;;
29954;SDS011;68448;51.188;6.868;2023-04-03T06:02:15;4.83;;;3.70;;
29954;SDS011;68448;51.188;6.868;2023-04-03T06:04:46;7.23;;;3.60;;
29954;SDS011;68448;51.188;6.868;2023-04-03T06:07:14;6.67;;;3.37;;
29954;SDS011;68448;51.188;6.868;2023-04-03T06:09:42;5.20;;;3.63;;
29954;SDS011;68448;51.188;6.868;2023-04-03T06:12:09;6.10;;;3.60;;
29954;SDS011;68448;51.188;6.868;2023-04-03T06:14:37;13.37;;;3.63;;
29954;SDS011;68448;51.188;6.868;2023-04-03T06:17:04;7.87;;;3.00;;
29954;SDS011;68448;51.188;6.868;2023-04-03T06:19:31;12.40;;;3.90;;
29954;SDS011;68448;51.188;6.868;2023-04-03T06:22:00;10.93;;;3.80;;
29954;SDS011;68448;51.188;6.868;2023-04-03T06:24:27;8.10;;;5.03;;
29954;SDS011;68448;51.188;6.868;2023-04-03T06:26:54;8.87;;;4.13;;
29954;SDS011;68448;51.188;6.868;2023-04-03T06:29:21;12.43;;;4.03;;
29954;SDS011;68448;51.188;6.868;2023-04-03T06:31:48;10.77;;;4.70;;
29954;SDS011;68448;51.188;6.868;2023-04-03T06:34:16;7.80;;;3.90;;
29954;SDS011;68448;51.188;6.868;2023-04-03T06:36:43;7.70;;;4.27;;
29954;SDS011;68448;51.188;6.868;2023-04-03T06:39:13;7.03;;;3.43;;
29954;SDS011;68448;51.188;6.868;2023-04-03T06:41:40;7.20;;;3.37;;
29954;SDS011;68448;51.188;6.868;2023-04-03T06:44:07;8.00;;;3.60;;
29954;SDS011;68448;51.188;6.868;2023-04-03T06:46:34;9.43;;;4.03;;
29954;SDS011;68448;51.188;6.868;2023-04-03T06:49:02;7.00;;;3.97;;
29954;SDS011;68448;51.188;6.868;2023-04-03T06:51:29;6.60;;;4.10;;
29954;SDS011;68448;51.188;6.868;2023-04-03T06:53:57;11.17;;;3.60;;
29954;SDS011;68448;51.188;6.868;2023-04-03T06:56:26;6.67;;;3.57;;
29954;SDS011;68448;51.188;6.868;2023-04-03T06:58:54;7.53;;;3.97;;
29954;SDS011;68448;51.188;6.868;2023-04-03T07:01:21;5.83;;;3.27;;
29954;SDS011;68448;51.188;6.868;2023-04-03T07:03:49;5.43;;;2.70;;
29954;SDS011;68448;51.188;6.868;2023-04-03T07:06:16;8.90;;;3.90;;
29954;SDS011;68448;51.188;6.868;2023-04-03T07:08:44;5.07;;;3.30;;
29954;SDS011;68448;51.188;6.868;2023-04-03T07:11:12;6.33;;;2.90;;
29954;SDS011;68448;51.188;6.868;2023-04-03T07:13:40;6.77;;;3.50;;
29954;SDS011;68448;51.188;6.868;2023-04-03T07:16:07;9.17;;;3.43;;
29954;SDS011;68448;51.188;6.868;2023-04-03T07:18:35;4.13;;;2.53;;
29954;SDS011;68448;51.188;6.868;2023-04-03T07:21:02;14.03;;;3.30;;
29954;SDS011;68448;51.188;6.868;2023-04-03T07:23:30;6.30;;;3.07;;
29954;SDS011;68448;51.188;6.868;2023-04-03T07:25:57;6.90;;;3.20;;
29954;SDS011;68448;51.188;6.868;2023-04-03T07:28:24;8.13;;;4.27;;
29954;SDS011;68448;51.188;6.868;2023-04-03T07:30:53;6.30;;;2.97;;
29954;SDS011;68448;51.188;6.868;2023-04-03T07:33:23;7.80;;;5.20;;
29954;SDS011;68448;51.188;6.868;2023-04-03T07:35:50;6.77;;;3.00;;
29954;SDS011;68448;51.188;6.868;2023-04-03T07:38:17;6.20;;;2.90;;
29954;SDS011;68448;51.188;6.868;2023-04-03T07:40:48;7.93;;;3.00;;
29954;SDS011;68448;51.188;6.868;2023-04-03T07:43:16;9.17;;;3.17;;
29954;SDS011;68448;51.188;6.868;2023-04-03T07:45:43;5.40;;;3.10;;
29954;SDS011;68448;51.188;6.868;2023-04-03T07:48:12;3.27;;;2.70;;
29954;SDS011;68448;51.188;6.868;2023-04-03T07:50:39;6.77;;;2.90;;
29954;SDS011;68448;51.188;6.868;2023-04-03T07:53:07;5.40;;;2.70;;
29954;SDS011;68448;51.188;6.868;2023-04-03T07:55:34;7.87;;;4.13;;
29954;SDS011;68448;51.188;6.868;2023-04-03T07:58:01;3.97;;;2.20;;
29954;SDS011;68448;51.188;6.868;2023-04-03T08:00:28;4.73;;;2.20;;
29954;SDS011;68448;51.188;6.868;2023-04-03T08:02:55;5.10;;;2.10;;
29954;SDS011;68448;51.188;6.868;2023-04-03T08:05:24;5.10;;;2.53;;
29954;SDS011;68448;51.188;6.868;2023-04-03T08:07:51;3.90;;;2.40;;
29954;SDS011;68448;51.188;6.868;2023-04-03T08:10:18;6.80;;;2.40;;
29954;SDS011;68448;51.188;6.868;2023-04-03T08:12:46;7.20;;;2.97;;
29954;SDS011;68448;51.188;6.868;2023-04-03T08:15:13;3.93;;;2.20;;
29954;SDS011;68448;51.188;6.868;2023-04-03T08:17:40;5.37;;;2.43;;
29954;SDS011;68448;51.188;6.868;2023-04-03T08:20:07;3.83;;;2.40;;
29954;SDS011;68448;51.188;6.868;2023-04-03T08:22:36;7.90;;;2.23;;
29954;SDS011;68448;51.188;6.868;2023-04-03T08:25:03;5.27;;;2.10;;
29954;SDS011;68448;51.188;6.868;2023-04-03T08:27:30;2.70;;;1.60;;
29954;SDS011;68448;51.188;6.868;2023-04-03T08:30:01;4.63;;;1.80;;
29954;SDS011;68448;51.188;6.868;2023-04-03T08:32:28;3.20;;;1.70;;
29954;SDS011;68448;51.188;6.868;2023-04-03T08:34:55;4.70;;;2.33;;
29954;SDS011;68448;51.188;6.868;2023-04-03T08:37:22;3.87;;;2.30;;
29954;SDS011;68448;51.188;6.868;2023-04-03T08:39:50;5.80;;;1.77;;
29954;SDS011;68448;51.188;6.868;2023-04-03T08:42:19;5.73;;;2.13;;
29954;SDS011;68448;51.188;6.868;2023-04-03T08:44:53;3.97;;;1.70;;
29954;SDS011;68448;51.188;6.868;2023-04-03T08:47:23;2.00;;;1.70;;
29954;SDS011;68448;51.188;6.868;2023-04-03T08:49:52;6.63;;;1.90;;
29954;SDS011;68448;51.188;6.868;2023-04-03T08:52:22;3.20;;;2.03;;
29954;SDS011;68448;51.188;6.868;2023-04-03T08:54:52;8.73;;;2.33;;
29954;SDS011;68448;51.188;6.868;2023-04-03T08:57:25;2.43;;;1.70;;
29954;SDS011;68448;51.188;6.868;2023-04-03T08:59:53;3.40;;;1.77;;
29954;SDS011;68448;51.188;6.868;2023-04-03T09:02:23;4.93;;;1.97;;
29954;SDS011;68448;51.188;6.868;2023-04-03T09:04:51;2.87;;;1.90;;
29954;SDS011;68448;51.188;6.868;2023-04-03T09:07:19;2.27;;;1.50;;
29954;SDS011;68448;51.188;6.868;2023-04-03T09:09:49;4.30;;;2.53;;
29954;SDS011;68448;51.188;6.868;2023-04-03T09:12:18;2.73;;;1.50;;
29954;SDS011;68448;51.188;6.868;2023-04-03T09:14:49;4.30;;;2.03;;
29954;SDS011;68448;51.188;6.868;2023-04-03T09:17:21;2.63;;;1.83;;
29954;SDS011;68448;51.188;6.868;2023-04-03T09:19:54;2.00;;;1.80;;
29954;SDS011;68448;51.188;6.868;2023-04-03T09:22:23;3.67;;;2.07;;
29954;SDS011;68448;51.188;6.868;2023-04-03T09:24:52;8.60;;;3.37;;
29954;SDS011;68448;51.188;6.868;2023-04-03T09:27:23;8.17;;;3.17;;
29954;SDS011;68448;51.188;6.868;2023-04-03T09:29:52;3.47;;;1.60;;
29954;SDS011;68448;51.188;6.868;2023-04-03T09:32:22;4.37;;;2.10;;
29954;SDS011;68448;51.188;6.868;2023-04-03T09:34:52;8.70;;;2.50;;
29954;SDS011;68448;51.188;6.868;2023-04-03T09:37:33;2.40;;;2.17;;
29954;SDS011;68448;51.188;6.868;2023-04-03T09:40:01;6.70;;;2.30;;
29954;SDS011;68448;51.188;6.868;2023-04-03T09:42:29;4.10;;;2.13;;
29954;SDS011;68448;51.188;6.868;2023-04-03T09:44:58;5.73;;;2.63;;
29954;SDS011;68448;51.188;6.868;2023-04-03T09:47:26;3.70;;;1.93;;
29954;SDS011;68448;51.188;6.868;2023-04-03T09:50:08;5.23;;;2.20;;
29954;SDS011;68448;51.188;6.868;2023-04-03T09:52:36;2.70;;;2.13;;
29954;SDS011;68448;51.188;6.868;2023-04-03T09:55:06;4.60;;;2.30;;
29954;SDS011;68448;51.188;6.868;2023-04-03T09:57:34;3.60;;;2.10;;
29954;SDS011;68448;51.188;6.868;2023-04-03T10:00:03;2.83;;;1.80;;
29954;SDS011;68448;51.188;6.868;2023-04-03T10:02:35;2.37;;;1.90;;
29954;SDS011;68448;51.188;6.868;2023-04-03T10:05:03;3.63;;;2.20;;
29954;SDS011;68448;51.188;6.868;2023-04-03T10:07:35;4.10;;;1.70;;
29954;SDS011;68448;51.188;6.868;2023-04-03T10:10:14;5.93;;;2.60;;
29954;SDS011;68448;51.188;6.868;2023-04-03T10:12:43;4.90;;;2.30;;
29954;SDS011;68448;51.188;6.868;2023-04-03T10:15:11;3.90;;;1.80;;
29954;SDS011;68448;51.188;6.868;2023-04-03T10:17:42;2.33;;;1.70;;
29954;SDS011;68448;51.188;6.868;2023-04-03T10:20:21;3.37;;;1.53;;
29954;SDS011;68448;51.188;6.868;2023-04-03T10:22:52;2.50;;;1.40;;
29954;SDS011;68448;51.188;6.868;2023-04-03T10:25:24;2.63;;;1.50;;
29954;SDS011;68448;51.188;6.868;2023-04-03T10:27:56;4.00;;;1.67;;
29954;SDS011;68448;51.188;6.868;2023-04-03T10:30:34;2.63;;;1.63;;
29954;SDS011;68448;51.188;6.868;2023-04-03T10:33:09;4.20;;;1.70;;
29954;SDS011;68448;51.188;6.868;2023-04-03T10:35:42;2.10;;;1.80;;
29954;SDS011;68448;51.188;6.868;2023-04-03T10:38:13;2.10;;;1.90;;
29954;SDS011;68448;51.188;6.868;2023-04-03T10:40:45;2.23;;;1.67;;
29954;SDS011;68448;51.188;6.868;2023-04-03T10:43:17;1.70;;;1.30;;
29954;SDS011;68448;51.188;6.868;2023-04-03T10:45:51;3.73;;;2.00;;
29954;SDS011;68448;51.188;6.868;2023-04-03T10:48:24;2.23;;;1.50;;
29954;SDS011;68448;51.188;6.868;2023-04-03T10:50:55;4.03;;;2.17;;
29954;SDS011;68448;51.188;6.868;2023-04-03T10:53:26;4.03;;;1.60;;
29954;SDS011;68448;51.188;6.868;2023-04-03T10:55:56;1.60;;;1.50;;
29954;SDS011;68448;51.188;6.868;2023-04-03T10:58:28;2.50;;;1.50;;
29954;SDS011;68448;51.188;6.868;2023-04-03T11:00:57;2.77;;;1.73;;
29954;SDS011;68448;51.188;6.868;2023-04-03T11:03:28;5.13;;;2.13;;
29954;SDS011;68448;51.188;6.868;2023-04-03T11:05:56;5.43;;;1.97;;
29954;SDS011;68448;51.188;6.868;2023-04-03T11:08:26;3.73;;;1.93;;
29954;SDS011;68448;51.188;6.868;2023-04-03T11:10:54;2.77;;;1.63;;
29954;SDS011;68448;51.188;6.868;2023-04-03T11:13:24;2.43;;;1.27;;
29954;SDS011;68448;51.188;6.868;2023-04-03T11:15:54;3.57;;;1.57;;
29954;SDS011;68448;51.188;6.868;2023-04-03T11:18:25;2.40;;;1.53;;
29954;SDS011;68448;51.188;6.868;2023-04-03T11:20:57;1.73;;;1.33;;
29954;SDS011;68448;51.188;6.868;2023-04-03T11:23:26;2.00;;;1.50;;
29954;SDS011;68448;51.188;6.868;2023-04-03T11:26:06;6.77;;;1.80;;
29954;SDS011;68448;51.188;6.868;2023-04-03T11:28:33;1.33;;;1.10;;
29954;SDS011;68448;51.188;6.868;2023-04-03T11:31:05;1.60;;;1.50;;
29954;SDS011;68448;51.188;6.868;2023-04-03T11:33:41;2.50;;;1.40;;
29954;SDS011;68448;51.188;6.868;2023-04-03T11:36:12;1.57;;;1.30;;
29954;SDS011;68448;51.188;6.868;2023-04-03T11:38:52;1.83;;;1.13;;
29954;SDS011;68448;51.188;6.868;2023-04-03T11:41:24;2.73;;;1.47;;
29954;SDS011;68448;51.188;6.868;2023-04-03T11:43:56;2.30;;;1.30;;
29954;SDS011;68448;51.188;6.868;2023-04-03T11:46:35;1.40;;;1.30;;
29954;SDS011;68448;51.188;6.868;2023-04-03T11:51:58;2.20;;;1.33;;
29954;SDS011;68448;51.188;6.868;2023-04-03T11:54:35;1.97;;;1.23;;
29954;SDS011;68448;51.188;6.868;2023-04-03T12:02:48;1.77;;;1.40;;
29954;SDS011;68448;51.188;6.868;2023-04-03T12:05:26;3.30;;;2.30;;
29954;SDS011;68448;51.188;6.868;2023-04-03T12:08:15;2.73;;;1.30;;
29954;SDS011;68448;51.188;6.868;2023-04-03T12:10:43;3.63;;;3.07;;
29954;SDS011;68448;51.188;6.868;2023-04-03T12:13:30;2.43;;;1.50;;
29954;SDS011;68448;51.188;6.868;2023-04-03T12:15:57;2.33;;;1.40;;
29954;SDS011;68448;51.188;6.868;2023-04-03T12:21:17;2.53;;;1.27;;
29954;SDS011;68448;51.188;6.868;2023-04-03T12:24:01;2.23;;;1.40;;
29954;SDS011;68448;51.188;6.868;2023-04-03T12:26:30;1.77;;;1.30;;
29954;SDS011;68448;51.188;6.868;2023-04-03T12:29:17;1.93;;;1.17;;
29954;SDS011;68448;51.188;6.868;2023-04-03T12:31:47;3.00;;;1.58;;
29954;SDS011;68448;51.188;6.868;2023-04-03T12:34:20;4.03;;;1.33;;
29954;SDS011;68448;51.188;6.868;2023-04-03T12:36:54;2.92;;;1.20;;
29954;SDS011;68448;51.188;6.868;2023-04-03T12:39:34;1.98;;;1.40;;
29954;SDS011;68448;51.188;6.868;2023-04-03T12:42:11;2.35;;;1.40;;
29954;SDS011;68448;51.188;6.868;2023-04-03T12:44:44;2.58;;;1.80;;
29954;SDS011;68448;51.188;6.868;2023-04-03T12:47:18;2.03;;;1.40;;
29954;SDS011;68448;51.188;6.868;2023-04-03T12:49:48;2.15;;;1.83;;
29954;SDS011;68448;51.188;6.868;2023-04-03T12:52:22;4.72;;;1.58;;
29954;SDS011;68448;51.188;6.868;2023-04-03T12:54:51;3.33;;;1.67;;
29954;SDS011;68448;51.188;6.868;2023-04-03T12:57:19;3.17;;;1.50;;
29954;SDS011;68448;51.188;6.868;2023-04-03T12:59:47;3.95;;;2.03;;
29954;SDS011;68448;51.188;6.868;2023-04-03T13:02:21;1.73;;;1.25;;
29954;SDS011;68448;51.188;6.868;2023-04-03T13:04:49;1.75;;;1.55;;
29954;SDS011;68448;51.188;6.868;2023-04-03T13:07:24;6.15;;;1.73;;
29954;SDS011;68448;51.188;6.868;2023-04-03T13:09:55;1.50;;;1.40;;
29954;SDS011;68448;51.188;6.868;2023-04-03T13:12:22;2.17;;;1.60;;
29954;SDS011;68448;51.188;6.868;2023-04-03T13:14:53;4.07;;;1.58;;
29954;SDS011;68448;51.188;6.868;2023-04-03T13:17:21;3.45;;;1.52;;
29954;SDS011;68448;51.188;6.868;2023-04-03T13:19:48;2.03;;;1.40;;
29954;SDS011;68448;51.188;6.868;2023-04-03T13:22:20;2.50;;;1.65;;
29954;SDS011;68448;51.188;6.868;2023-04-03T13:24:51;2.28;;;1.63;;
29954;SDS011;68448;51.188;6.868;2023-04-03T13:27:20;2.35;;;1.50;;
29954;SDS011;68448;51.188;6.868;2023-04-03T13:29:49;2.03;;;1.58;;
29954;SDS011;68448;51.188;6.868;2023-04-03T13:32:18;2.08;;;1.60;;
29954;SDS011;68448;51.188;6.868;2023-04-03T13:34:46;2.05;;;1.63;;
29954;SDS011;68448;51.188;6.868;2023-04-03T13:37:20;3.90;;;1.70;;
29954;SDS011;68448;51.188;6.868;2023-04-03T13:39:57;2.65;;;1.75;;
29954;SDS011;68448;51.188;6.868;2023-04-03T13:42:25;2.15;;;1.40;;
29954;SDS011;68448;51.188;6.868;2023-04-03T13:45:07;2.42;;;1.75;;
29954;SDS011;68448;51.188;6.868;2023-04-03T13:47:38;1.95;;;1.75;;
29954;SDS011;68448;51.188;6.868;2023-04-03T13:50:13;9.13;;;1.65;;
29954;SDS011;68448;51.188;6.868;2023-04-03T13:52:42;3.15;;;1.40;;
29954;SDS011;68448;51.188;6.868;2023-04-03T13:55:17;2.22;;;1.90;;
29954;SDS011;68448;51.188;6.868;2023-04-03T13:57:53;2.75;;;1.83;;
29954;SDS011;68448;51.188;6.868;2023-04-03T14:00:21;2.72;;;1.95;;
29954;SDS011;68448;51.188;6.868;2023-04-03T14:02:54;2.05;;;1.50;;
29954;SDS011;68448;51.188;6.868;2023-04-03T14:05:22;3.95;;;1.88;;
29954;SDS011;68448;51.188;6.868;2023-04-03T14:07:49;4.50;;;2.00;;
29954;SDS011;68448;51.188;6.868;2023-04-03T14:10:17;2.30;;;2.10;;
29954;SDS011;68448;51.188;6.868;2023-04-03T14:12:45;2.58;;;1.50;;
29954;SDS011;68448;51.188;6.868;2023-04-03T14:15:16;2.60;;;1.63;;
29954;SDS011;68448;51.188;6.868;2023-04-03T14:17:44;1.60;;;1.40;;
29954;SDS011;68448;51.188;6.868;2023-04-03T14:20:14;2.17;;;1.83;;
29954;SDS011;68448;51.188;6.868;2023-04-03T14:22:41;2.38;;;1.90;;
29954;SDS011;68448;51.188;6.868;2023-04-03T14:25:08;2.65;;;1.73;;
29954;SDS011;68448;51.188;6.868;2023-04-03T14:27:38;2.72;;;2.00;;
29954;SDS011;68448;51.188;6.868;2023-04-03T14:30:06;3.65;;;1.95;;
29954;SDS011;68448;51.188;6.868;2023-04-03T14:32:34;1.40;;;1.30;;
29954;SDS011;68448;51.188;6.868;2023-04-03T14:35:01;4.25;;;1.50;;
29954;SDS011;68448;51.188;6.868;2023-04-03T14:37:29;1.60;;;1.23;;
29954;SDS011;68448;51.188;6.868;2023-04-03T14:39:58;1.90;;;1.70;;
29954;SDS011;68448;51.188;6.868;2023-04-03T14:42:26;3.17;;;1.70;;
29954;SDS011;68448;51.188;6.868;2023-04-03T14:44:55;2.78;;;1.77;;
29954;SDS011;68448;51.188;6.868;2023-04-03T14:47:23;3.20;;;1.63;;
29954;SDS011;68448;51.188;6.868;2023-04-03T14:49:57;1.57;;;1.47;;
29954;SDS011;68448;51.188;6.868;2023-04-03T14:52:25;2.47;;;1.83;;
29954;SDS011;68448;51.188;6.868;2023-04-03T14:54:53;2.70;;;1.93;;
29954;SDS011;68448;51.188;6.868;2023-04-03T14:57:21;2.27;;;1.60;;
29954;SDS011;68448;51.188;6.868;2023-04-03T14:59:49;2.53;;;1.80;;
29954;SDS011;68448;51.188;6.868;2023-04-03T15:02:28;2.10;;;1.63;;
29954;SDS011;68448;51.188;6.868;2023-04-03T15:04:56;4.68;;;2.22;;
29954;SDS011;68448;51.188;6.868;2023-04-03T15:07:24;2.30;;;1.77;;
29954;SDS011;68448;51.188;6.868;2023-04-03T15:09:51;4.53;;;2.00;;